메인 페이지
METAR-TAF:

METAR-TAF

공항 :

아타튀르크 국제공항

이스탄불 이스탄불, 터키

위도: 40-58N, 경도: 028-49E, 고도: 48m

현재 날씨관측

예보는 21분 전, 04:50시(UTC)에 발표되었습니다.
남동6kt풍과 남남서풍을 오가는
온도 26°C
습도 84%
기압 1011 hPa
시정 10km 이상
1500m 미만 상공 구름 및 적란운 없음

METAR: LTBA 220450Z 14006KT 080V200 CAVOK 26/23 Q1011 NOSIG RMK RWY17L 13005KT 100V180 RWY05 11004KT RWY23 13006KT 100V180

시각: 08:11 (05:11 UTC)

예보

예보는 6 시간 31분 전, 22:40시(UTC)에 발표되었습니다.
예보 대상 시간: 22일 00시부터 23일 06시까지 (UTC)
여러 방향의 바람 2kt
시정 10km 이상
1500m 미만 상공 구름 및 적란운 없음
전환 중
22일 04시부터 22일 06시까지 (UTC)
고도 3500ft 상공 구름 보통
일시적
22일 06시부터 22일 10시까지 (UTC)
고도 2500ft 상공 구름 보통, 타워링 적운.
고도 3500ft 상공 구름 많음
약한소나기
전환 중
22일 15시부터 22일 18시까지 (UTC)
시정 10km 이상
1500m 미만 상공 구름 및 적란운 없음

TAF: LTBA 212240Z 2200/2306 VRB02KT CAVOK BECMG 2204/2206 SCT035 TEMPO 2206/2210 -SHRA SCT025TCU BKN035 BECMG 2215/2218 CAVOK

4,000개 이상의 공항 관측 자료 및 예보 (METAR 및 TAF 보고).

지도상에서 검색 가능한 기상관측소가 노란 점과 빨간 점으로 표시되어 있습니다.

기상관측소 명을 보려면 표시 위로 마우스를 이동하세요.

날씨 관측과 예보를 보려면 클릭하세요.

지도 변경 : 확대하려면 엑스 표시가 있는 녹색 버튼, 축소하려면 빼기 표시가 있는 녹색 버튼, 다음 페이지의 지도를 보려면 녹색 화살표를 클릭하세요.


METAR-TAF: